sensor_id;sensor_type;location;lat;lon;timestamp;P1;durP1;ratioP1;P2;durP2;ratioP2
24137;SDS011;17947;50.672;6.076;2023-03-12T00:00:40;2.75;;;1.38;;
24137;SDS011;17947;50.672;6.076;2023-03-12T00:03:06;2.05;;;1.45;;
24137;SDS011;17947;50.672;6.076;2023-03-12T00:05:35;1.98;;;1.30;;
24137;SDS011;17947;50.672;6.076;2023-03-12T00:08:01;2.70;;;1.63;;
24137;SDS011;17947;50.672;6.076;2023-03-12T00:10:27;1.85;;;1.20;;
24137;SDS011;17947;50.672;6.076;2023-03-12T00:12:54;2.00;;;1.38;;
24137;SDS011;17947;50.672;6.076;2023-03-12T00:15:20;2.38;;;1.27;;
24137;SDS011;17947;50.672;6.076;2023-03-12T00:17:46;2.80;;;1.23;;
24137;SDS011;17947;50.672;6.076;2023-03-12T00:20:12;3.33;;;1.30;;
24137;SDS011;17947;50.672;6.076;2023-03-12T00:22:39;1.30;;;1.20;;
24137;SDS011;17947;50.672;6.076;2023-03-12T00:25:06;2.00;;;1.20;;
24137;SDS011;17947;50.672;6.076;2023-03-12T00:27:32;2.53;;;1.30;;
24137;SDS011;17947;50.672;6.076;2023-03-12T00:29:58;1.08;;;1.02;;
24137;SDS011;17947;50.672;6.076;2023-03-12T00:32:24;1.67;;;1.35;;
24137;SDS011;17947;50.672;6.076;2023-03-12T00:34:50;1.27;;;1.05;;
24137;SDS011;17947;50.672;6.076;2023-03-12T00:37:17;1.40;;;1.10;;
24137;SDS011;17947;50.672;6.076;2023-03-12T00:39:43;2.83;;;1.45;;
24137;SDS011;17947;50.672;6.076;2023-03-12T00:42:09;1.83;;;1.10;;
24137;SDS011;17947;50.672;6.076;2023-03-12T00:44:35;1.80;;;1.10;;
24137;SDS011;17947;50.672;6.076;2023-03-12T00:47:01;1.60;;;1.20;;
24137;SDS011;17947;50.672;6.076;2023-03-12T00:49:27;2.17;;;1.10;;
24137;SDS011;17947;50.672;6.076;2023-03-12T00:51:53;2.80;;;1.10;;
24137;SDS011;17947;50.672;6.076;2023-03-12T00:54:19;2.15;;;1.20;;
24137;SDS011;17947;50.672;6.076;2023-03-12T00:56:46;1.30;;;1.00;;
24137;SDS011;17947;50.672;6.076;2023-03-12T00:59:13;1.50;;;1.00;;
24137;SDS011;17947;50.672;6.076;2023-03-12T01:01:39;1.60;;;1.08;;
24137;SDS011;17947;50.672;6.076;2023-03-12T01:04:05;1.67;;;1.10;;
24137;SDS011;17947;50.672;6.076;2023-03-12T01:06:31;1.52;;;1.10;;
24137;SDS011;17947;50.672;6.076;2023-03-12T01:08:57;2.15;;;1.10;;
24137;SDS011;17947;50.672;6.076;2023-03-12T01:11:24;2.47;;;1.30;;
24137;SDS011;17947;50.672;6.076;2023-03-12T01:13:50;2.20;;;1.17;;
24137;SDS011;17947;50.672;6.076;2023-03-12T01:16:18;1.48;;;0.90;;
24137;SDS011;17947;50.672;6.076;2023-03-12T01:18:45;1.17;;;1.05;;
24137;SDS011;17947;50.672;6.076;2023-03-12T01:21:11;1.83;;;1.25;;
24137;SDS011;17947;50.672;6.076;2023-03-12T01:23:37;1.88;;;1.10;;
24137;SDS011;17947;50.672;6.076;2023-03-12T01:26:03;1.52;;;1.02;;
24137;SDS011;17947;50.672;6.076;2023-03-12T01:28:29;1.35;;;1.25;;
24137;SDS011;17947;50.672;6.076;2023-03-12T01:30:55;1.23;;;1.00;;
24137;SDS011;17947;50.672;6.076;2023-03-12T01:33:21;1.23;;;1.00;;
24137;SDS011;17947;50.672;6.076;2023-03-12T01:35:47;0.95;;;0.85;;
24137;SDS011;17947;50.672;6.076;2023-03-12T01:38:14;1.77;;;1.00;;
24137;SDS011;17947;50.672;6.076;2023-03-12T01:40:41;1.10;;;0.90;;
24137;SDS011;17947;50.672;6.076;2023-03-12T01:43:27;1.95;;;1.00;;
24137;SDS011;17947;50.672;6.076;2023-03-12T01:48:20;1.13;;;0.95;;
24137;SDS011;17947;50.672;6.076;2023-03-12T01:50:46;0.90;;;0.90;;
24137;SDS011;17947;50.672;6.076;2023-03-12T01:53:12;0.70;;;0.70;;
24137;SDS011;17947;50.672;6.076;2023-03-12T01:55:38;1.25;;;1.00;;
24137;SDS011;17947;50.672;6.076;2023-03-12T01:58:04;1.40;;;1.00;;
24137;SDS011;17947;50.672;6.076;2023-03-12T02:00:31;1.88;;;0.93;;
24137;SDS011;17947;50.672;6.076;2023-03-12T02:02:58;1.73;;;0.90;;
24137;SDS011;17947;50.672;6.076;2023-03-12T02:08:10;0.95;;;0.85;;
24137;SDS011;17947;50.672;6.076;2023-03-12T02:10:37;1.67;;;0.98;;
24137;SDS011;17947;50.672;6.076;2023-03-12T02:13:04;0.95;;;0.80;;
24137;SDS011;17947;50.672;6.076;2023-03-12T02:15:30;1.23;;;0.95;;
24137;SDS011;17947;50.672;6.076;2023-03-12T02:17:57;2.05;;;0.77;;
24137;SDS011;17947;50.672;6.076;2023-03-12T02:20:27;0.77;;;0.77;;
24137;SDS011;17947;50.672;6.076;2023-03-12T02:22:56;1.20;;;0.88;;
24137;SDS011;17947;50.672;6.076;2023-03-12T02:28:14;1.60;;;0.80;;
24137;SDS011;17947;50.672;6.076;2023-03-12T02:30:41;1.17;;;0.80;;
24137;SDS011;17947;50.672;6.076;2023-03-12T02:33:09;1.27;;;0.90;;
24137;SDS011;17947;50.672;6.076;2023-03-12T02:35:35;0.80;;;0.80;;
24137;SDS011;17947;50.672;6.076;2023-03-12T02:38:02;1.27;;;0.88;;
24137;SDS011;17947;50.672;6.076;2023-03-12T02:40:41;1.60;;;0.90;;
24137;SDS011;17947;50.672;6.076;2023-03-12T02:43:08;0.88;;;0.68;;
24137;SDS011;17947;50.672;6.076;2023-03-12T02:45:35;1.13;;;0.70;;
24137;SDS011;17947;50.672;6.076;2023-03-12T02:48:02;0.98;;;0.80;;
24137;SDS011;17947;50.672;6.076;2023-03-12T02:50:28;1.20;;;0.80;;
24137;SDS011;17947;50.672;6.076;2023-03-12T02:52:54;1.13;;;0.88;;
24137;SDS011;17947;50.672;6.076;2023-03-12T02:55:20;1.40;;;0.90;;
24137;SDS011;17947;50.672;6.076;2023-03-12T02:57:46;1.63;;;0.60;;
24137;SDS011;17947;50.672;6.076;2023-03-12T03:00:12;0.70;;;0.68;;
24137;SDS011;17947;50.672;6.076;2023-03-12T03:02:39;1.23;;;0.80;;
24137;SDS011;17947;50.672;6.076;2023-03-12T03:05:05;1.17;;;0.80;;
24137;SDS011;17947;50.672;6.076;2023-03-12T03:07:32;2.33;;;0.95;;
24137;SDS011;17947;50.672;6.076;2023-03-12T03:09:58;1.00;;;0.88;;
24137;SDS011;17947;50.672;6.076;2023-03-12T03:12:29;0.90;;;0.68;;
24137;SDS011;17947;50.672;6.076;2023-03-12T03:14:55;0.88;;;0.70;;
24137;SDS011;17947;50.672;6.076;2023-03-12T03:17:21;0.77;;;0.77;;
24137;SDS011;17947;50.672;6.076;2023-03-12T03:19:49;0.85;;;0.68;;
24137;SDS011;17947;50.672;6.076;2023-03-12T03:22:15;1.10;;;0.80;;
24137;SDS011;17947;50.672;6.076;2023-03-12T03:24:41;1.60;;;0.77;;
24137;SDS011;17947;50.672;6.076;2023-03-12T03:27:07;1.05;;;0.75;;
24137;SDS011;17947;50.672;6.076;2023-03-12T03:29:33;0.88;;;0.73;;
24137;SDS011;17947;50.672;6.076;2023-03-12T03:31:59;0.88;;;0.60;;
24137;SDS011;17947;50.672;6.076;2023-03-12T03:34:25;1.33;;;0.73;;
24137;SDS011;17947;50.672;6.076;2023-03-12T03:36:51;1.15;;;0.80;;
24137;SDS011;17947;50.672;6.076;2023-03-12T03:39:17;0.75;;;0.70;;
24137;SDS011;17947;50.672;6.076;2023-03-12T03:41:44;0.85;;;0.80;;
24137;SDS011;17947;50.672;6.076;2023-03-12T03:44:11;1.08;;;0.73;;
24137;SDS011;17947;50.672;6.076;2023-03-12T03:46:38;0.73;;;0.70;;
24137;SDS011;17947;50.672;6.076;2023-03-12T03:49:04;0.95;;;0.70;;
24137;SDS011;17947;50.672;6.076;2023-03-12T03:51:30;0.75;;;0.60;;
24137;SDS011;17947;50.672;6.076;2023-03-12T03:53:57;0.80;;;0.80;;
24137;SDS011;17947;50.672;6.076;2023-03-12T03:56:26;1.00;;;0.77;;
24137;SDS011;17947;50.672;6.076;2023-03-12T03:58:52;0.80;;;0.70;;
24137;SDS011;17947;50.672;6.076;2023-03-12T04:01:18;0.85;;;0.70;;
24137;SDS011;17947;50.672;6.076;2023-03-12T04:03:45;0.70;;;0.70;;
24137;SDS011;17947;50.672;6.076;2023-03-12T04:06:11;1.00;;;0.73;;
24137;SDS011;17947;50.672;6.076;2023-03-12T04:08:37;0.60;;;0.60;;
24137;SDS011;17947;50.672;6.076;2023-03-12T04:11:22;1.05;;;0.95;;
24137;SDS011;17947;50.672;6.076;2023-03-12T04:13:48;0.93;;;0.60;;
24137;SDS011;17947;50.672;6.076;2023-03-12T04:16:15;0.52;;;0.52;;
24137;SDS011;17947;50.672;6.076;2023-03-12T04:18:41;0.88;;;0.70;;
24137;SDS011;17947;50.672;6.076;2023-03-12T04:21:09;0.65;;;0.50;;
24137;SDS011;17947;50.672;6.076;2023-03-12T04:23:35;0.70;;;0.70;;
24137;SDS011;17947;50.672;6.076;2023-03-12T04:26:02;0.90;;;0.60;;
24137;SDS011;17947;50.672;6.076;2023-03-12T04:28:28;1.00;;;0.55;;
24137;SDS011;17947;50.672;6.076;2023-03-12T04:30:58;0.77;;;0.68;;
24137;SDS011;17947;50.672;6.076;2023-03-12T04:33:28;1.00;;;0.57;;
24137;SDS011;17947;50.672;6.076;2023-03-12T04:35:54;0.47;;;0.47;;
24137;SDS011;17947;50.672;6.076;2023-03-12T04:38:21;0.95;;;0.80;;
24137;SDS011;17947;50.672;6.076;2023-03-12T04:40:56;0.82;;;0.60;;
24137;SDS011;17947;50.672;6.076;2023-03-12T04:43:22;0.70;;;0.60;;
24137;SDS011;17947;50.672;6.076;2023-03-12T04:45:48;0.70;;;0.68;;
24137;SDS011;17947;50.672;6.076;2023-03-12T04:48:14;0.88;;;0.75;;
24137;SDS011;17947;50.672;6.076;2023-03-12T04:50:40;1.02;;;0.60;;
24137;SDS011;17947;50.672;6.076;2023-03-12T04:53:06;1.08;;;0.80;;
24137;SDS011;17947;50.672;6.076;2023-03-12T04:55:32;0.88;;;0.68;;
24137;SDS011;17947;50.672;6.076;2023-03-12T04:57:58;0.60;;;0.60;;
24137;SDS011;17947;50.672;6.076;2023-03-12T05:00:24;1.23;;;0.63;;
24137;SDS011;17947;50.672;6.076;2023-03-12T05:02:51;1.00;;;0.50;;
24137;SDS011;17947;50.672;6.076;2023-03-12T05:05:17;0.80;;;0.68;;
24137;SDS011;17947;50.672;6.076;2023-03-12T05:07:43;0.55;;;0.55;;
24137;SDS011;17947;50.672;6.076;2023-03-12T05:10:09;0.60;;;0.60;;
24137;SDS011;17947;50.672;6.076;2023-03-12T05:12:35;0.55;;;0.55;;
24137;SDS011;17947;50.672;6.076;2023-03-12T05:15:01;0.60;;;0.60;;
24137;SDS011;17947;50.672;6.076;2023-03-12T05:17:27;0.75;;;0.60;;
24137;SDS011;17947;50.672;6.076;2023-03-12T05:19:53;0.60;;;0.60;;
24137;SDS011;17947;50.672;6.076;2023-03-12T05:22:19;0.50;;;0.50;;
24137;SDS011;17947;50.672;6.076;2023-03-12T05:24:45;0.77;;;0.63;;
24137;SDS011;17947;50.672;6.076;2023-03-12T05:27:11;1.25;;;0.70;;
24137;SDS011;17947;50.672;6.076;2023-03-12T05:29:37;1.27;;;0.50;;
24137;SDS011;17947;50.672;6.076;2023-03-12T05:32:03;1.23;;;0.60;;
24137;SDS011;17947;50.672;6.076;2023-03-12T05:34:31;0.60;;;0.60;;
24137;SDS011;17947;50.672;6.076;2023-03-12T05:36:57;0.52;;;0.52;;
24137;SDS011;17947;50.672;6.076;2023-03-12T05:39:24;0.50;;;0.50;;
24137;SDS011;17947;50.672;6.076;2023-03-12T05:41:50;0.85;;;0.40;;
24137;SDS011;17947;50.672;6.076;2023-03-12T05:44:21;0.40;;;0.40;;
24137;SDS011;17947;50.672;6.076;2023-03-12T05:46:47;0.77;;;0.60;;
24137;SDS011;17947;50.672;6.076;2023-03-12T05:49:13;0.70;;;0.70;;
24137;SDS011;17947;50.672;6.076;2023-03-12T05:51:39;0.50;;;0.50;;
24137;SDS011;17947;50.672;6.076;2023-03-12T05:54:07;0.50;;;0.50;;
24137;SDS011;17947;50.672;6.076;2023-03-12T05:56:34;0.60;;;0.52;;
24137;SDS011;17947;50.672;6.076;2023-03-12T05:59:00;0.50;;;0.50;;
24137;SDS011;17947;50.672;6.076;2023-03-12T06:01:27;0.70;;;0.60;;
24137;SDS011;17947;50.672;6.076;2023-03-12T06:03:53;1.40;;;0.80;;
24137;SDS011;17947;50.672;6.076;2023-03-12T06:06:19;0.50;;;0.50;;
24137;SDS011;17947;50.672;6.076;2023-03-12T06:08:45;0.80;;;0.60;;
24137;SDS011;17947;50.672;6.076;2023-03-12T06:11:12;0.50;;;0.50;;
24137;SDS011;17947;50.672;6.076;2023-03-12T06:13:38;0.43;;;0.43;;
24137;SDS011;17947;50.672;6.076;2023-03-12T06:16:05;0.95;;;0.50;;
24137;SDS011;17947;50.672;6.076;2023-03-12T06:18:32;0.60;;;0.60;;
24137;SDS011;17947;50.672;6.076;2023-03-12T06:21:08;0.50;;;0.50;;
24137;SDS011;17947;50.672;6.076;2023-03-12T06:23:34;0.47;;;0.47;;
24137;SDS011;17947;50.672;6.076;2023-03-12T06:26:00;0.40;;;0.40;;
24137;SDS011;17947;50.672;6.076;2023-03-12T06:28:26;0.50;;;0.50;;
24137;SDS011;17947;50.672;6.076;2023-03-12T06:30:52;0.40;;;0.40;;
24137;SDS011;17947;50.672;6.076;2023-03-12T06:33:18;0.43;;;0.43;;
24137;SDS011;17947;50.672;6.076;2023-03-12T06:35:44;0.60;;;0.60;;
24137;SDS011;17947;50.672;6.076;2023-03-12T06:38:10;0.70;;;0.60;;
24137;SDS011;17947;50.672;6.076;2023-03-12T06:40:36;0.40;;;0.40;;
24137;SDS011;17947;50.672;6.076;2023-03-12T06:43:02;0.43;;;0.43;;
24137;SDS011;17947;50.672;6.076;2023-03-12T06:45:28;0.77;;;0.60;;
24137;SDS011;17947;50.672;6.076;2023-03-12T06:47:54;0.75;;;0.50;;
24137;SDS011;17947;50.672;6.076;2023-03-12T06:50:20;0.55;;;0.47;;
24137;SDS011;17947;50.672;6.076;2023-03-12T06:52:46;0.60;;;0.60;;
24137;SDS011;17947;50.672;6.076;2023-03-12T06:55:13;0.50;;;0.50;;
24137;SDS011;17947;50.672;6.076;2023-03-12T06:57:39;0.80;;;0.40;;
24137;SDS011;17947;50.672;6.076;2023-03-12T07:00:05;1.85;;;0.57;;
24137;SDS011;17947;50.672;6.076;2023-03-12T07:02:32;0.60;;;0.60;;
24137;SDS011;17947;50.672;6.076;2023-03-12T07:04:57;0.52;;;0.50;;
24137;SDS011;17947;50.672;6.076;2023-03-12T07:07:23;0.52;;;0.40;;
24137;SDS011;17947;50.672;6.076;2023-03-12T07:09:50;0.40;;;0.40;;
24137;SDS011;17947;50.672;6.076;2023-03-12T07:12:16;0.65;;;0.60;;
24137;SDS011;17947;50.672;6.076;2023-03-12T07:14:41;0.40;;;0.40;;
24137;SDS011;17947;50.672;6.076;2023-03-12T07:17:07;0.52;;;0.52;;
24137;SDS011;17947;50.672;6.076;2023-03-12T07:19:34;0.82;;;0.40;;
24137;SDS011;17947;50.672;6.076;2023-03-12T07:22:00;0.68;;;0.60;;
24137;SDS011;17947;50.672;6.076;2023-03-12T07:24:26;0.93;;;0.65;;
24137;SDS011;17947;50.672;6.076;2023-03-12T07:26:52;0.73;;;0.60;;
24137;SDS011;17947;50.672;6.076;2023-03-12T07:29:18;2.25;;;0.52;;
24137;SDS011;17947;50.672;6.076;2023-03-12T07:31:44;0.40;;;0.40;;
24137;SDS011;17947;50.672;6.076;2023-03-12T07:34:11;1.13;;;0.60;;
24137;SDS011;17947;50.672;6.076;2023-03-12T07:36:37;0.50;;;0.50;;
24137;SDS011;17947;50.672;6.076;2023-03-12T07:39:03;0.52;;;0.50;;
24137;SDS011;17947;50.672;6.076;2023-03-12T07:41:30;0.50;;;0.50;;
24137;SDS011;17947;50.672;6.076;2023-03-12T07:43:56;0.95;;;0.50;;
24137;SDS011;17947;50.672;6.076;2023-03-12T07:46:22;0.75;;;0.50;;
24137;SDS011;17947;50.672;6.076;2023-03-12T07:48:48;0.50;;;0.50;;
24137;SDS011;17947;50.672;6.076;2023-03-12T07:51:14;0.40;;;0.40;;
24137;SDS011;17947;50.672;6.076;2023-03-12T07:53:40;0.63;;;0.40;;
24137;SDS011;17947;50.672;6.076;2023-03-12T07:56:06;0.95;;;0.60;;
24137;SDS011;17947;50.672;6.076;2023-03-12T07:58:32;2.15;;;0.50;;
24137;SDS011;17947;50.672;6.076;2023-03-12T08:01:00;0.60;;;0.57;;
24137;SDS011;17947;50.672;6.076;2023-03-12T08:03:26;0.70;;;0.57;;
24137;SDS011;17947;50.672;6.076;2023-03-12T08:05:56;0.43;;;0.43;;
24137;SDS011;17947;50.672;6.076;2023-03-12T08:08:22;0.75;;;0.60;;
24137;SDS011;17947;50.672;6.076;2023-03-12T08:10:48;0.60;;;0.45;;
24137;SDS011;17947;50.672;6.076;2023-03-12T08:13:14;0.50;;;0.50;;
24137;SDS011;17947;50.672;6.076;2023-03-12T08:15:40;0.50;;;0.40;;
24137;SDS011;17947;50.672;6.076;2023-03-12T08:18:06;0.90;;;0.60;;
24137;SDS011;17947;50.672;6.076;2023-03-12T08:20:32;1.08;;;0.63;;
24137;SDS011;17947;50.672;6.076;2023-03-12T08:22:58;0.50;;;0.50;;
24137;SDS011;17947;50.672;6.076;2023-03-12T08:25:24;0.45;;;0.45;;
24137;SDS011;17947;50.672;6.076;2023-03-12T08:27:50;0.50;;;0.50;;
24137;SDS011;17947;50.672;6.076;2023-03-12T08:30:16;0.50;;;0.50;;
24137;SDS011;17947;50.672;6.076;2023-03-12T08:32:42;0.50;;;0.50;;
24137;SDS011;17947;50.672;6.076;2023-03-12T08:35:08;0.52;;;0.52;;
24137;SDS011;17947;50.672;6.076;2023-03-12T08:37:35;0.60;;;0.60;;
24137;SDS011;17947;50.672;6.076;2023-03-12T08:40:01;0.50;;;0.50;;
24137;SDS011;17947;50.672;6.076;2023-03-12T08:42:33;0.40;;;0.40;;
24137;SDS011;17947;50.672;6.076;2023-03-12T08:44:59;0.63;;;0.63;;
24137;SDS011;17947;50.672;6.076;2023-03-12T08:47:24;0.70;;;0.63;;
24137;SDS011;17947;50.672;6.076;2023-03-12T08:49:50;0.47;;;0.47;;
24137;SDS011;17947;50.672;6.076;2023-03-12T08:52:16;0.40;;;0.40;;
24137;SDS011;17947;50.672;6.076;2023-03-12T08:54:42;0.40;;;0.40;;
24137;SDS011;17947;50.672;6.076;2023-03-12T08:57:08;0.40;;;0.40;;
24137;SDS011;17947;50.672;6.076;2023-03-12T08:59:34;1.00;;;0.57;;
24137;SDS011;17947;50.672;6.076;2023-03-12T09:02:00;0.60;;;0.60;;
24137;SDS011;17947;50.672;6.076;2023-03-12T09:04:26;0.40;;;0.40;;
24137;SDS011;17947;50.672;6.076;2023-03-12T09:06:52;0.47;;;0.45;;
24137;SDS011;17947;50.672;6.076;2023-03-12T09:09:19;0.50;;;0.50;;
24137;SDS011;17947;50.672;6.076;2023-03-12T09:11:45;0.50;;;0.50;;
24137;SDS011;17947;50.672;6.076;2023-03-12T09:14:11;0.40;;;0.40;;
24137;SDS011;17947;50.672;6.076;2023-03-12T09:16:37;0.75;;;0.55;;
24137;SDS011;17947;50.672;6.076;2023-03-12T09:19:03;0.40;;;0.40;;
24137;SDS011;17947;50.672;6.076;2023-03-12T09:21:29;0.90;;;0.50;;
24137;SDS011;17947;50.672;6.076;2023-03-12T09:23:55;0.40;;;0.40;;
24137;SDS011;17947;50.672;6.076;2023-03-12T09:26:21;0.50;;;0.50;;
24137;SDS011;17947;50.672;6.076;2023-03-12T09:28:48;0.55;;;0.50;;
24137;SDS011;17947;50.672;6.076;2023-03-12T09:31:14;0.40;;;0.40;;
24137;SDS011;17947;50.672;6.076;2023-03-12T09:33:40;0.40;;;0.40;;
24137;SDS011;17947;50.672;6.076;2023-03-12T09:36:06;0.50;;;0.50;;
24137;SDS011;17947;50.672;6.076;2023-03-12T09:38:32;0.43;;;0.40;;
24137;SDS011;17947;50.672;6.076;2023-03-12T09:40:59;0.43;;;0.43;;
24137;SDS011;17947;50.672;6.076;2023-03-12T09:43:46;0.40;;;0.40;;
24137;SDS011;17947;50.672;6.076;2023-03-12T09:46:14;0.73;;;0.55;;
24137;SDS011;17947;50.672;6.076;2023-03-12T09:48:42;0.70;;;0.70;;
24137;SDS011;17947;50.672;6.076;2023-03-12T09:51:15;0.60;;;0.60;;
24137;SDS011;17947;50.672;6.076;2023-03-12T09:53:46;0.73;;;0.60;;
24137;SDS011;17947;50.672;6.076;2023-03-12T09:56:14;1.00;;;0.50;;
24137;SDS011;17947;50.672;6.076;2023-03-12T09:58:41;0.80;;;0.60;;
24137;SDS011;17947;50.672;6.076;2023-03-12T10:06:23;0.43;;;0.43;;
24137;SDS011;17947;50.672;6.076;2023-03-12T10:11:38;0.60;;;0.60;;
24137;SDS011;17947;50.672;6.076;2023-03-12T10:16:57;0.50;;;0.50;;
24137;SDS011;17947;50.672;6.076;2023-03-12T10:19:30;0.50;;;0.50;;
24137;SDS011;17947;50.672;6.076;2023-03-12T10:22:09;0.50;;;0.50;;
24137;SDS011;17947;50.672;6.076;2023-03-12T10:27:08;0.75;;;0.60;;
24137;SDS011;17947;50.672;6.076;2023-03-12T10:29:36;0.63;;;0.60;;
24137;SDS011;17947;50.672;6.076;2023-03-12T10:34:42;0.57;;;0.50;;
24137;SDS011;17947;50.672;6.076;2023-03-12T10:37:30;0.40;;;0.40;;
24137;SDS011;17947;50.672;6.076;2023-03-12T10:39:55;0.57;;;0.47;;
24137;SDS011;17947;50.672;6.076;2023-03-12T10:42:25;0.80;;;0.65;;
24137;SDS011;17947;50.672;6.076;2023-03-12T10:44:58;1.23;;;0.60;;
24137;SDS011;17947;50.672;6.076;2023-03-12T10:47:38;0.50;;;0.50;;
24137;SDS011;17947;50.672;6.076;2023-03-12T10:50:26;0.70;;;0.50;;
24137;SDS011;17947;50.672;6.076;2023-03-12T10:52:51;0.82;;;0.60;;
24137;SDS011;17947;50.672;6.076;2023-03-12T10:55:19;0.93;;;0.63;;
24137;SDS011;17947;50.672;6.076;2023-03-12T10:57:46;0.60;;;0.60;;
24137;SDS011;17947;50.672;6.076;2023-03-12T11:00:17;0.70;;;0.70;;
24137;SDS011;17947;50.672;6.076;2023-03-12T11:02:44;1.25;;;0.70;;
24137;SDS011;17947;50.672;6.076;2023-03-12T11:07:45;0.95;;;0.63;;
24137;SDS011;17947;50.672;6.076;2023-03-12T11:12:49;0.80;;;0.57;;
24137;SDS011;17947;50.672;6.076;2023-03-12T11:15:20;0.95;;;0.70;;
24137;SDS011;17947;50.672;6.076;2023-03-12T11:17:47;1.25;;;0.60;;
24137;SDS011;17947;50.672;6.076;2023-03-12T11:22:45;1.50;;;0.70;;
24137;SDS011;17947;50.672;6.076;2023-03-12T11:25:19;0.70;;;0.60;;
24137;SDS011;17947;50.672;6.076;2023-03-12T11:27:48;0.82;;;0.82;;
24137;SDS011;17947;50.672;6.076;2023-03-12T11:30:16;1.05;;;0.55;;
24137;SDS011;17947;50.672;6.076;2023-03-12T11:32:44;6.13;;;1.10;;
24137;SDS011;17947;50.672;6.076;2023-03-12T11:35:12;1.40;;;0.80;;
24137;SDS011;17947;50.672;6.076;2023-03-12T11:43:13;4.00;;;0.80;;
24137;SDS011;17947;50.672;6.076;2023-03-12T11:45:59;2.63;;;0.77;;
24137;SDS011;17947;50.672;6.076;2023-03-12T11:56:33;1.55;;;0.75;;
24137;SDS011;17947;50.672;6.076;2023-03-12T12:01:43;2.58;;;0.77;;
24137;SDS011;17947;50.672;6.076;2023-03-12T12:19:46;2.90;;;1.10;;
24137;SDS011;17947;50.672;6.076;2023-03-12T12:22:23;1.15;;;0.65;;
24137;SDS011;17947;50.672;6.076;2023-03-12T12:27:21;2.92;;;0.98;;
24137;SDS011;17947;50.672;6.076;2023-03-12T12:32:23;1.65;;;0.98;;
24137;SDS011;17947;50.672;6.076;2023-03-12T12:35:02;1.83;;;0.70;;
24137;SDS011;17947;50.672;6.076;2023-03-12T12:37:52;2.30;;;1.00;;
24137;SDS011;17947;50.672;6.076;2023-03-12T12:40:22;2.35;;;0.90;;
24137;SDS011;17947;50.672;6.076;2023-03-12T12:43:05;2.33;;;1.13;;
24137;SDS011;17947;50.672;6.076;2023-03-12T12:45:36;3.63;;;0.93;;
24137;SDS011;17947;50.672;6.076;2023-03-12T12:48:05;1.38;;;0.80;;
24137;SDS011;17947;50.672;6.076;2023-03-12T12:50:33;1.67;;;0.82;;
24137;SDS011;17947;50.672;6.076;2023-03-12T12:53:12;2.33;;;1.00;;
24137;SDS011;17947;50.672;6.076;2023-03-12T12:55:48;2.47;;;0.80;;
24137;SDS011;17947;50.672;6.076;2023-03-12T12:58:20;2.33;;;0.80;;
24137;SDS011;17947;50.672;6.076;2023-03-12T13:00:48;3.25;;;1.02;;
24137;SDS011;17947;50.672;6.076;2023-03-12T13:03:17;1.50;;;0.90;;
24137;SDS011;17947;50.672;6.076;2023-03-12T13:05:45;2.78;;;1.10;;
24137;SDS011;17947;50.672;6.076;2023-03-12T13:10:58;4.32;;;1.20;;
24137;SDS011;17947;50.672;6.076;2023-03-12T13:13:28;3.30;;;1.15;;
24137;SDS011;17947;50.672;6.076;2023-03-12T13:18:39;2.03;;;1.05;;
24137;SDS011;17947;50.672;6.076;2023-03-12T13:21:14;2.38;;;1.13;;
24137;SDS011;17947;50.672;6.076;2023-03-12T13:23:54;6.10;;;1.38;;
24137;SDS011;17947;50.672;6.076;2023-03-12T13:26:37;3.15;;;1.08;;
24137;SDS011;17947;50.672;6.076;2023-03-12T13:29:34;4.72;;;1.42;;
24137;SDS011;17947;50.672;6.076;2023-03-12T13:32:01;2.22;;;1.08;;
24137;SDS011;17947;50.672;6.076;2023-03-12T13:34:31;5.20;;;1.33;;
24137;SDS011;17947;50.672;6.076;2023-03-12T13:37:16;3.15;;;1.10;;
24137;SDS011;17947;50.672;6.076;2023-03-12T13:39:43;3.35;;;1.05;;
24137;SDS011;17947;50.672;6.076;2023-03-12T13:42:42;2.55;;;1.10;;
24137;SDS011;17947;50.672;6.076;2023-03-12T13:48:17;3.42;;;1.02;;
24137;SDS011;17947;50.672;6.076;2023-03-12T13:50:51;3.80;;;1.40;;
24137;SDS011;17947;50.672;6.076;2023-03-12T13:53:20;6.95;;;1.73;;
24137;SDS011;17947;50.672;6.076;2023-03-12T13:55:59;5.20;;;1.42;;
24137;SDS011;17947;50.672;6.076;2023-03-12T13:58:26;2.78;;;1.13;;
24137;SDS011;17947;50.672;6.076;2023-03-12T14:01:13;3.35;;;1.20;;
24137;SDS011;17947;50.672;6.076;2023-03-12T14:03:44;2.72;;;1.00;;
24137;SDS011;17947;50.672;6.076;2023-03-12T14:06:16;3.40;;;1.08;;
24137;SDS011;17947;50.672;6.076;2023-03-12T14:08:56;2.85;;;1.10;;
24137;SDS011;17947;50.672;6.076;2023-03-12T14:14:16;3.90;;;1.33;;
24137;SDS011;17947;50.672;6.076;2023-03-12T14:16:49;3.35;;;1.05;;
24137;SDS011;17947;50.672;6.076;2023-03-12T14:19:16;3.15;;;1.27;;
24137;SDS011;17947;50.672;6.076;2023-03-12T14:21:46;2.70;;;1.10;;
24137;SDS011;17947;50.672;6.076;2023-03-12T14:26:45;6.28;;;1.27;;
24137;SDS011;17947;50.672;6.076;2023-03-12T14:29:18;4.47;;;1.50;;
24137;SDS011;17947;50.672;6.076;2023-03-12T14:31:46;4.70;;;1.42;;
24137;SDS011;17947;50.672;6.076;2023-03-12T14:34:22;3.78;;;1.40;;
24137;SDS011;17947;50.672;6.076;2023-03-12T14:37:09;5.90;;;1.55;;
24137;SDS011;17947;50.672;6.076;2023-03-12T14:42:09;8.25;;;1.70;;
24137;SDS011;17947;50.672;6.076;2023-03-12T14:44:36;5.57;;;1.52;;
24137;SDS011;17947;50.672;6.076;2023-03-12T14:47:09;2.17;;;1.20;;
24137;SDS011;17947;50.672;6.076;2023-03-12T14:49:42;8.05;;;2.00;;
24137;SDS011;17947;50.672;6.076;2023-03-12T14:52:12;5.10;;;1.60;;
24137;SDS011;17947;50.672;6.076;2023-03-12T14:54:39;5.68;;;1.33;;
24137;SDS011;17947;50.672;6.076;2023-03-12T14:57:20;4.78;;;1.58;;
24137;SDS011;17947;50.672;6.076;2023-03-12T14:59:55;5.10;;;1.50;;
24137;SDS011;17947;50.672;6.076;2023-03-12T15:02:21;5.75;;;1.80;;
24137;SDS011;17947;50.672;6.076;2023-03-12T15:04:48;6.20;;;2.15;;
24137;SDS011;17947;50.672;6.076;2023-03-12T15:07:16;5.97;;;1.45;;
24137;SDS011;17947;50.672;6.076;2023-03-12T15:09:45;4.30;;;1.48;;
24137;SDS011;17947;50.672;6.076;2023-03-12T15:12:21;4.25;;;1.40;;
24137;SDS011;17947;50.672;6.076;2023-03-12T15:14:48;4.60;;;1.30;;
24137;SDS011;17947;50.672;6.076;2023-03-12T15:17:15;3.97;;;1.08;;
24137;SDS011;17947;50.672;6.076;2023-03-12T15:19:43;3.92;;;1.23;;
24137;SDS011;17947;50.672;6.076;2023-03-12T15:22:20;4.80;;;1.30;;
24137;SDS011;17947;50.672;6.076;2023-03-12T15:24:48;4.75;;;1.48;;
24137;SDS011;17947;50.672;6.076;2023-03-12T15:29:47;3.03;;;1.50;;
24137;SDS011;17947;50.672;6.076;2023-03-12T15:32:14;6.00;;;1.67;;
24137;SDS011;17947;50.672;6.076;2023-03-12T15:34:41;6.55;;;1.50;;
24137;SDS011;17947;50.672;6.076;2023-03-12T15:37:21;4.90;;;1.40;;
24137;SDS011;17947;50.672;6.076;2023-03-12T15:39:49;6.07;;;2.00;;
24137;SDS011;17947;50.672;6.076;2023-03-12T15:42:18;4.15;;;1.52;;
24137;SDS011;17947;50.672;6.076;2023-03-12T15:47:12;7.07;;;1.60;;
24137;SDS011;17947;50.672;6.076;2023-03-12T15:49:38;4.90;;;1.60;;
24137;SDS011;17947;50.672;6.076;2023-03-12T15:54:37;3.80;;;1.58;;
24137;SDS011;17947;50.672;6.076;2023-03-12T15:57:21;5.40;;;1.42;;
24137;SDS011;17947;50.672;6.076;2023-03-12T16:00:11;4.00;;;1.40;;
24137;SDS011;17947;50.672;6.076;2023-03-12T16:02:37;4.75;;;1.65;;
24137;SDS011;17947;50.672;6.076;2023-03-12T16:05:04;5.97;;;1.85;;
24137;SDS011;17947;50.672;6.076;2023-03-12T16:07:30;5.47;;;1.75;;
24137;SDS011;17947;50.672;6.076;2023-03-12T16:09:56;6.47;;;2.10;;
24137;SDS011;17947;50.672;6.076;2023-03-12T16:12:22;5.63;;;1.60;;
24137;SDS011;17947;50.672;6.076;2023-03-12T16:14:48;7.28;;;2.08;;
24137;SDS011;17947;50.672;6.076;2023-03-12T16:17:14;6.05;;;1.77;;
24137;SDS011;17947;50.672;6.076;2023-03-12T16:19:43;6.15;;;1.90;;
24137;SDS011;17947;50.672;6.076;2023-03-12T16:22:09;5.47;;;2.03;;
24137;SDS011;17947;50.672;6.076;2023-03-12T16:24:35;4.82;;;1.83;;
24137;SDS011;17947;50.672;6.076;2023-03-12T16:27:01;6.40;;;1.70;;